16 Dec 2018 10:26 UTC 2018350+10:26 UTC

Overview Datums Bench Marks Data Query Site Visit Daily QC Messages Attributes

130: GBRA Station #2

28° 24' 26" N   96° 42' 43" W
GBRA2
Guadalupe Blanco River Authority (GBRA) GBRA

Station Information

GBRA Station #2
GBRA Station #2
more pictures
 
Station Name:GBRA Station #2
DNR ID:130
Location:28° 24' 26" N, 96° 42' 43" W

Water Level Forecasts

Latest Observations

Series Metric English Marine Observed at
Water Temperature 11.1 °C 52.0 °F 52.0 °F Dec 16 04:18 CST
00h07m ago
Salinity 1.000 psu 1.000 psu 1.000 psu Dec 16 04:18 CST
00h07m ago

Maps

GBRA Station #2
All Stations in Area
Entire Network
 

Recent Observations

Date/Time Water
Temp (°F)
Sal (psu)
Dec 16 04:00 CST 52.2 1.000
Dec 16 03:00 CST 52.2 1.000
Dec 16 02:00 CST 52.5 1.000
Dec 16 01:00 CST 53.4 1.000
Dec 16 00:00 CST 53.4 1.000
Dec 15 23:00 CST 53.6 0.900
Dec 15 22:00 CST 54.7 1.400
Dec 15 21:00 CST 55.8 1.600
Dec 15 20:00 CST 55.9 1.600
Dec 15 19:00 CST 56.5 1.500
Dec 15 18:00 CST 56.3 1.400
Dec 15 17:00 CST 56.7 1.500
Dec 15 16:00 CST 56.8 1.500
Dec 15 15:00 CST 57.4 1.600
Dec 15 14:00 CST 56.8 1.500
Dec 15 13:00 CST 55.9 1.400
Dec 15 12:00 CST 54.9 1.400
Dec 15 11:00 CST 53.4 1.400
Dec 15 10:00 CST 51.8 1.400
Dec 15 09:00 CST 50.7 1.500
Dec 15 08:00 CST 50.7 1.400
Dec 15 07:00 CST 50.9 1.400
Dec 15 06:00 CST 51.3 1.400
Dec 15 05:00 CST 51.8 1.300
Dec 15 04:00 CST 52.2 1.200

Historical Data Availability